createdAt,value
2023-02-04T00:00:13.319Z,0.98
2023-02-04T00:02:41.106Z,0.80
2023-02-04T00:05:08.330Z,0.70
2023-02-04T00:07:35.017Z,0.80
2023-02-04T00:10:03.271Z,0.80
2023-02-04T00:12:29.939Z,1.42
2023-02-04T00:14:56.517Z,0.93
2023-02-04T00:17:22.993Z,1.53
2023-02-04T00:19:49.515Z,0.52
2023-02-04T00:22:17.381Z,1.08
2023-02-04T00:24:48.454Z,0.90
2023-02-04T00:27:14.985Z,2.00
2023-02-04T00:29:41.600Z,1.37
2023-02-04T00:32:08.406Z,0.80
2023-02-04T00:34:35.971Z,1.10
2023-02-04T00:37:02.432Z,1.33
2023-02-04T00:39:29.011Z,1.23
2023-02-04T00:41:55.514Z,1.27
2023-02-04T00:44:22.076Z,1.98
2023-02-04T00:46:48.786Z,1.27
2023-02-04T00:49:15.416Z,1.65
2023-02-04T00:51:46.375Z,1.20
2023-02-04T00:54:14.669Z,2.70
2023-02-04T00:56:41.816Z,0.45
2023-02-04T00:59:08.758Z,1.08
2023-02-04T01:01:35.505Z,0.65
2023-02-04T01:04:02.092Z,1.08
2023-02-04T01:06:28.901Z,0.80
2023-02-04T01:08:55.350Z,2.35
2023-02-04T01:11:21.973Z,2.25
2023-02-04T01:13:48.502Z,1.10
2023-02-04T01:16:15.196Z,2.13
2023-02-04T01:18:41.989Z,0.70
2023-02-04T01:21:08.432Z,1.88
2023-02-04T01:23:34.960Z,1.70
2023-02-04T01:26:01.429Z,1.70
2023-02-04T01:28:28.250Z,0.88
2023-02-04T01:30:55.100Z,1.23
2023-02-04T01:33:22.202Z,2.20
2023-02-04T01:35:48.777Z,1.63
2023-02-04T01:38:15.255Z,1.17
2023-02-04T01:40:43.018Z,0.63
2023-02-04T01:43:11.224Z,1.20
2023-02-04T01:45:38.215Z,1.17
2023-02-04T01:48:06.599Z,1.75
2023-02-04T01:50:33.790Z,0.80
2023-02-04T01:53:01.178Z,1.23
2023-02-04T01:55:31.432Z,1.60
2023-02-04T01:57:59.017Z,1.23
2023-02-04T02:00:31.596Z,1.58
2023-02-04T02:02:59.528Z,1.02
2023-02-04T02:05:37.727Z,1.77
2023-02-04T02:08:05.803Z,0.97
2023-02-04T02:10:33.794Z,1.23
2023-02-04T02:13:00.620Z,0.90
2023-02-04T02:15:28.029Z,0.73
2023-02-04T02:17:55.135Z,1.23
2023-02-04T02:20:23.938Z,0.97
2023-02-04T02:23:23.631Z,1.10
2023-02-04T02:25:51.377Z,0.88
2023-02-04T02:28:20.872Z,1.65
2023-02-04T02:30:49.549Z,1.30
2023-02-04T02:33:19.298Z,1.40
2023-02-04T02:35:50.564Z,2.13
2023-02-04T02:38:19.097Z,1.15
2023-02-04T02:40:46.935Z,0.98
2023-02-04T02:43:32.001Z,1.48
2023-02-04T02:46:00.826Z,1.57
2023-02-04T02:48:28.275Z,1.30
2023-02-04T02:50:55.341Z,1.77
2023-02-04T02:53:22.087Z,1.42
2023-02-04T02:55:49.046Z,1.35
2023-02-04T02:58:23.614Z,2.00
2023-02-04T03:00:50.215Z,1.40
2023-02-04T03:03:29.733Z,1.45
2023-02-04T03:06:05.627Z,1.25
2023-02-04T03:08:32.227Z,1.48
2023-02-04T03:10:58.788Z,2.00
2023-02-04T03:13:26.001Z,1.48
2023-02-04T03:15:52.937Z,1.70
2023-02-04T03:18:20.664Z,2.25
2023-02-04T03:20:50.218Z,1.60
2023-02-04T03:23:17.598Z,2.50
2023-02-04T03:25:44.373Z,1.30
2023-02-04T03:28:10.880Z,0.95
2023-02-04T03:30:37.577Z,2.13
2023-02-04T03:33:04.290Z,1.10
2023-02-04T03:35:30.802Z,1.63
2023-02-04T03:37:57.529Z,2.20
2023-02-04T03:40:24.053Z,1.67
2023-02-04T03:42:50.590Z,1.23
2023-02-04T03:45:17.237Z,1.38
2023-02-04T03:47:43.718Z,1.80
2023-02-04T03:50:12.499Z,1.65
2023-02-04T03:52:39.978Z,1.25
2023-02-04T03:55:07.063Z,1.73
2023-02-04T03:57:33.555Z,1.83
2023-02-04T04:00:00.269Z,2.27
2023-02-04T04:02:26.731Z,1.85
2023-02-04T04:04:53.235Z,1.20
2023-02-04T04:07:19.876Z,1.27
2023-02-04T04:09:46.376Z,1.98
2023-02-04T04:12:12.951Z,2.43
2023-02-04T04:14:39.536Z,1.42
2023-02-04T04:17:06.996Z,2.28
2023-02-04T04:19:33.523Z,2.10
2023-02-04T04:22:01.298Z,1.52
2023-02-04T04:24:27.802Z,1.40
2023-02-04T04:26:54.340Z,2.00
2023-02-04T04:29:20.871Z,2.22
2023-02-04T04:31:47.363Z,1.83
2023-02-04T04:34:13.893Z,1.13
2023-02-04T04:36:40.338Z,1.60
2023-02-04T04:39:06.838Z,2.35
2023-02-04T04:41:33.264Z,1.45
2023-02-04T04:43:59.814Z,2.40
2023-02-04T04:46:26.242Z,2.67
2023-02-04T04:48:52.879Z,1.63
2023-02-04T04:51:19.327Z,1.95
2023-02-04T04:53:45.797Z,1.20
2023-02-04T04:56:12.422Z,1.48
2023-02-04T04:58:39.737Z,1.88
2023-02-04T05:01:06.345Z,3.00
2023-02-04T05:03:32.905Z,1.73
2023-02-04T05:05:59.615Z,1.25
2023-02-04T05:08:26.105Z,1.13
2023-02-04T05:10:52.612Z,1.15
2023-02-04T05:13:19.090Z,2.23
2023-02-04T05:15:45.680Z,2.28
2023-02-04T05:18:12.318Z,1.48
2023-02-04T05:20:38.818Z,2.30
2023-02-04T05:23:05.938Z,1.20
2023-02-04T05:25:32.887Z,1.87
2023-02-04T05:27:59.524Z,1.52
2023-02-04T05:30:26.094Z,1.45
2023-02-04T05:32:52.645Z,1.50
2023-02-04T05:35:19.568Z,1.83
2023-02-04T05:37:46.006Z,1.97
2023-02-04T05:40:13.276Z,2.80
2023-02-04T05:42:41.704Z,1.98
2023-02-04T05:45:14.104Z,2.15
2023-02-04T05:47:41.446Z,1.48
2023-02-04T05:50:08.573Z,2.53
2023-02-04T05:52:35.062Z,1.73
2023-02-04T05:55:01.690Z,1.38
2023-02-04T05:57:28.193Z,1.65
2023-02-04T05:59:54.810Z,1.65
2023-02-04T06:02:21.278Z,1.63
2023-02-04T06:04:47.778Z,1.67
2023-02-04T06:07:14.364Z,1.77
2023-02-04T06:09:40.933Z,1.65
2023-02-04T06:12:07.387Z,1.67
2023-02-04T06:14:33.826Z,2.20
2023-02-04T06:17:00.689Z,1.58
2023-02-04T06:19:27.473Z,1.63
2023-02-04T06:21:53.926Z,1.85
2023-02-04T06:24:20.372Z,1.73
2023-02-04T06:26:46.837Z,1.30
2023-02-04T06:29:13.298Z,2.40
2023-02-04T06:31:39.832Z,2.13
2023-02-04T06:34:06.590Z,0.95
2023-02-04T06:36:33.017Z,2.08
2023-02-04T06:38:59.648Z,1.83
2023-02-04T06:41:26.142Z,1.88
2023-02-04T06:43:52.727Z,3.38
2023-02-04T06:46:19.265Z,1.80
2023-02-04T06:48:45.762Z,1.92
2023-02-04T06:51:12.301Z,1.07
2023-02-04T06:53:38.867Z,1.60
2023-02-04T06:56:05.638Z,1.08
2023-02-04T06:58:32.101Z,1.27
2023-02-04T07:00:58.605Z,2.17
2023-02-04T07:03:25.025Z,1.07
2023-02-04T07:05:53.113Z,1.30
2023-02-04T07:08:21.752Z,1.92
2023-02-04T07:10:48.318Z,2.30
2023-02-04T07:13:14.767Z,1.70
2023-02-04T07:15:41.432Z,1.30
2023-02-04T07:18:08.768Z,1.90
2023-02-04T07:20:36.303Z,2.67
2023-02-04T07:23:02.821Z,2.58
2023-02-04T07:25:29.314Z,1.52
2023-02-04T07:27:56.365Z,2.00
2023-02-04T07:30:23.001Z,1.92
2023-02-04T07:32:49.481Z,2.58
2023-02-04T07:35:17.582Z,1.83
2023-02-04T07:37:45.002Z,1.30
2023-02-04T07:40:12.665Z,2.47
2023-02-04T07:42:39.220Z,2.10
2023-02-04T07:45:06.206Z,2.30
2023-02-04T07:47:32.677Z,1.60
2023-02-04T07:49:59.294Z,3.10
2023-02-04T07:52:26.080Z,1.37
2023-02-04T07:54:52.706Z,2.03
2023-02-04T07:57:20.537Z,1.60
2023-02-04T07:59:47.535Z,1.90
2023-02-04T08:02:14.058Z,2.85
2023-02-04T08:04:40.632Z,2.07
2023-02-04T08:07:07.098Z,1.95
2023-02-04T08:09:33.700Z,1.60
2023-02-04T08:12:00.316Z,2.35
2023-02-04T08:14:26.852Z,2.10
2023-02-04T08:16:53.362Z,1.57
2023-02-04T08:19:21.444Z,2.30
2023-02-04T08:21:48.522Z,2.00
2023-02-04T08:24:16.131Z,2.97
2023-02-04T08:26:44.256Z,1.70
2023-02-04T08:29:11.040Z,1.67
2023-02-04T08:31:38.312Z,3.13
2023-02-04T08:34:05.850Z,1.92
2023-02-04T08:36:32.700Z,2.30
2023-02-04T08:38:59.386Z,2.08
2023-02-04T08:41:26.015Z,2.50
2023-02-04T08:43:52.558Z,1.83
2023-02-04T08:46:19.180Z,2.15
2023-02-04T08:48:45.707Z,2.22
2023-02-04T08:51:12.254Z,2.35
2023-02-04T08:53:40.692Z,2.40
2023-02-04T08:56:08.945Z,2.55
2023-02-04T08:58:35.809Z,2.25
2023-02-04T09:01:02.926Z,2.42
2023-02-04T09:03:29.712Z,3.70
2023-02-04T09:05:56.176Z,2.80
2023-02-04T09:08:23.510Z,4.93
2023-02-04T09:10:49.943Z,5.20
2023-02-04T09:13:17.188Z,5.13
2023-02-04T09:15:44.736Z,5.75
2023-02-04T09:18:19.109Z,5.53
2023-02-04T09:20:46.083Z,3.28
2023-02-04T09:23:13.622Z,3.55
2023-02-04T09:25:41.260Z,5.07
2023-02-04T09:28:12.499Z,3.92
2023-02-04T09:30:40.506Z,3.50
2023-02-04T09:33:08.050Z,2.85
2023-02-04T09:35:34.666Z,1.90
2023-02-04T09:38:02.196Z,3.05
2023-02-04T09:40:32.041Z,4.72
2023-02-04T09:42:59.709Z,2.93
2023-02-04T09:45:32.674Z,2.30
2023-02-04T09:48:02.015Z,3.20
2023-02-04T09:50:32.251Z,2.45
2023-02-04T09:53:02.900Z,2.38
2023-02-04T09:55:36.060Z,2.63
2023-02-04T09:58:03.164Z,1.65
2023-02-04T10:00:31.864Z,2.22
2023-02-04T10:03:00.926Z,2.97
2023-02-04T10:05:32.817Z,2.55
2023-02-04T10:08:00.403Z,2.77
2023-02-04T10:10:27.808Z,3.28
2023-02-04T10:12:59.370Z,2.40
2023-02-04T10:15:26.708Z,1.83
2023-02-04T10:18:07.216Z,2.80
2023-02-04T10:20:34.394Z,2.23
2023-02-04T10:23:01.260Z,2.25
2023-02-04T10:25:28.203Z,2.38
2023-02-04T10:27:59.707Z,1.70
2023-02-04T10:30:35.984Z,1.67
2023-02-04T10:33:16.488Z,2.13
2023-02-04T10:35:51.847Z,2.08
2023-02-04T10:38:19.235Z,2.13
2023-02-04T10:40:47.351Z,1.98
2023-02-04T10:43:21.323Z,2.63
2023-02-04T10:45:56.370Z,2.07
2023-02-04T10:48:23.602Z,1.85
2023-02-04T10:50:50.091Z,2.28
2023-02-04T10:53:39.421Z,1.92
2023-02-04T10:56:15.868Z,1.38
2023-02-04T10:58:43.026Z,1.40
2023-02-04T11:01:11.768Z,1.92
2023-02-04T11:03:39.672Z,2.83
2023-02-04T11:06:13.258Z,2.70
2023-02-04T11:08:40.591Z,1.88
2023-02-04T11:11:38.069Z,1.57
2023-02-04T11:14:05.301Z,2.58
2023-02-04T11:16:35.574Z,2.33
2023-02-04T11:19:11.392Z,2.25
2023-02-04T11:21:38.010Z,1.67
2023-02-04T11:24:25.632Z,1.73
2023-02-04T11:27:04.776Z,2.55
2023-02-04T11:29:38.453Z,2.42
2023-02-04T11:32:12.665Z,1.65
2023-02-04T11:34:53.217Z,3.08
2023-02-04T11:37:36.078Z,2.13
2023-02-04T11:40:24.039Z,1.75
2023-02-04T11:42:56.307Z,1.60
2023-02-04T11:45:30.725Z,1.40
2023-02-04T11:48:14.858Z,2.95
2023-02-04T11:50:41.963Z,1.63
2023-02-04T11:53:11.313Z,2.30
2023-02-04T11:55:47.402Z,3.08
2023-02-04T11:58:18.912Z,1.75
2023-02-04T12:00:45.861Z,1.13
2023-02-04T12:03:26.658Z,1.30
2023-02-04T12:05:57.333Z,1.00
2023-02-04T12:08:23.798Z,4.13
2023-02-04T12:11:01.737Z,1.65
2023-02-04T12:13:30.739Z,0.90
2023-02-04T12:16:03.075Z,1.30
2023-02-04T12:18:31.250Z,2.28
2023-02-04T12:20:58.906Z,2.60
2023-02-04T12:23:27.359Z,1.02
2023-02-04T12:25:53.869Z,1.67
2023-02-04T12:28:20.864Z,1.83
2023-02-04T12:30:47.478Z,1.25
2023-02-04T12:33:15.145Z,1.33
2023-02-04T12:35:42.172Z,1.30
2023-02-04T12:38:10.301Z,1.17
2023-02-04T12:40:37.040Z,1.37
2023-02-04T12:43:03.857Z,1.58
2023-02-04T12:45:30.683Z,0.75
2023-02-04T12:47:57.601Z,1.52
2023-02-04T12:50:24.649Z,1.88
2023-02-04T12:52:53.721Z,1.90
2023-02-04T12:55:20.879Z,1.95
2023-02-04T12:57:47.386Z,1.30
2023-02-04T13:00:16.109Z,1.73
2023-02-04T13:02:42.666Z,0.77
2023-02-04T13:05:09.522Z,1.43
2023-02-04T13:07:36.567Z,2.05
2023-02-04T13:10:03.976Z,1.15
2023-02-04T13:12:30.591Z,1.08
2023-02-04T13:14:57.063Z,2.63
2023-02-04T13:17:29.620Z,1.10
2023-02-04T13:20:14.319Z,0.88
2023-02-04T13:22:40.952Z,2.13
2023-02-04T13:25:07.546Z,2.35
2023-02-04T13:27:34.134Z,1.27
2023-02-04T13:30:00.757Z,2.17
2023-02-04T13:32:27.420Z,1.30
2023-02-04T13:34:53.928Z,1.48
2023-02-04T13:37:20.921Z,2.63
2023-02-04T13:39:47.527Z,1.75
2023-02-04T13:42:14.180Z,1.57
2023-02-04T13:44:40.884Z,1.08
2023-02-04T13:47:09.504Z,1.65
2023-02-04T13:49:36.142Z,6.15
2023-02-04T13:52:02.747Z,2.80
2023-02-04T13:54:30.243Z,3.73
2023-02-04T13:56:57.110Z,3.13
2023-02-04T13:59:23.790Z,4.43
2023-02-04T14:01:50.367Z,1.85
2023-02-04T14:04:16.898Z,1.55
2023-02-04T14:06:43.687Z,2.43
2023-02-04T14:09:12.280Z,1.90
2023-02-04T14:11:39.365Z,2.03
2023-02-04T14:14:06.280Z,3.58
2023-02-04T14:16:33.040Z,3.65
2023-02-04T14:18:59.811Z,1.87
2023-02-04T14:21:27.219Z,2.65
2023-02-04T14:23:53.935Z,1.15
2023-02-04T14:26:20.522Z,1.63
2023-02-04T14:28:47.055Z,1.95
2023-02-04T14:31:13.577Z,1.73
2023-02-04T14:33:41.268Z,1.90
2023-02-04T14:36:07.926Z,1.80
2023-02-04T14:38:35.242Z,2.00
2023-02-04T14:41:01.904Z,1.80
2023-02-04T14:43:28.462Z,1.70
2023-02-04T14:45:56.593Z,1.95
2023-02-04T14:48:23.165Z,2.20
2023-02-04T14:50:49.794Z,2.83
2023-02-04T14:53:17.178Z,1.83
2023-02-04T14:55:43.654Z,1.00
2023-02-04T14:58:10.355Z,1.98
2023-02-04T15:00:36.866Z,2.70
2023-02-04T15:03:03.414Z,3.53
2023-02-04T15:05:30.170Z,1.73
2023-02-04T15:07:56.655Z,1.57
2023-02-04T15:10:24.600Z,2.78
2023-02-04T15:12:51.865Z,2.25
2023-02-04T15:15:18.766Z,1.58
2023-02-04T15:17:45.201Z,2.65
2023-02-04T15:20:12.590Z,2.80
2023-02-04T15:22:39.403Z,2.85
2023-02-04T15:25:06.332Z,2.20
2023-02-04T15:27:32.884Z,2.05
2023-02-04T15:29:59.391Z,1.55
2023-02-04T15:32:26.112Z,1.97
2023-02-04T15:34:52.693Z,2.28
2023-02-04T15:37:19.325Z,2.95
2023-02-04T15:39:45.844Z,1.67
2023-02-04T15:42:14.494Z,3.35
2023-02-04T15:44:41.238Z,2.80
2023-02-04T15:47:09.617Z,1.63
2023-02-04T15:49:36.319Z,2.33
2023-02-04T15:52:07.033Z,2.67
2023-02-04T15:54:35.580Z,2.58
2023-02-04T15:57:02.175Z,2.27
2023-02-04T15:59:28.716Z,3.38
2023-02-04T16:01:55.315Z,3.13
2023-02-04T16:04:21.916Z,3.33
2023-02-04T16:06:58.199Z,3.05
2023-02-04T16:09:26.261Z,2.67
2023-02-04T16:11:52.820Z,2.80
2023-02-04T16:14:19.380Z,4.22
2023-02-04T16:16:45.886Z,2.70
2023-02-04T16:19:12.638Z,2.22
2023-02-04T16:21:39.192Z,2.67
2023-02-04T16:24:06.054Z,2.45
2023-02-04T16:26:32.698Z,2.58
2023-02-04T16:28:59.323Z,3.60
2023-02-04T16:31:26.756Z,2.92
2023-02-04T16:33:53.417Z,3.73
2023-02-04T16:36:20.080Z,1.55
2023-02-04T16:38:46.554Z,1.60
2023-02-04T16:41:14.288Z,1.52
2023-02-04T16:43:40.992Z,1.45
2023-02-04T16:46:09.536Z,1.07
2023-02-04T16:48:36.454Z,1.48
2023-02-04T16:51:03.484Z,2.03
2023-02-04T16:53:30.146Z,1.63
2023-02-04T16:55:56.854Z,1.60
2023-02-04T16:58:26.296Z,1.60
2023-02-04T17:00:52.972Z,2.38
2023-02-04T17:03:19.494Z,1.40
2023-02-04T17:05:46.062Z,1.48
2023-02-04T17:08:13.684Z,1.75
2023-02-04T17:10:59.831Z,1.50
2023-02-04T17:13:26.257Z,1.13
2023-02-04T17:15:56.092Z,0.88
2023-02-04T17:18:22.703Z,1.50
2023-02-04T17:20:49.280Z,1.67
2023-02-04T17:23:15.778Z,1.93
2023-02-04T17:25:42.247Z,1.73
2023-02-04T17:28:08.719Z,2.28
2023-02-04T17:30:36.051Z,2.60
2023-02-04T17:33:02.661Z,4.10
2023-02-04T17:35:29.361Z,3.27
2023-02-04T17:37:55.903Z,3.95
2023-02-04T17:40:27.028Z,3.10
2023-02-04T17:42:56.220Z,2.80
2023-02-04T17:45:22.750Z,2.15
2023-02-04T17:47:49.333Z,2.97
2023-02-04T17:50:16.218Z,3.00
2023-02-04T17:52:42.747Z,3.17
2023-02-04T17:55:30.862Z,2.90
2023-02-04T17:58:00.483Z,2.78
2023-02-04T18:00:30.768Z,3.20
2023-02-04T18:02:57.723Z,7.78
2023-02-04T18:05:27.056Z,5.97
2023-02-04T18:07:56.450Z,4.63
2023-02-04T18:10:31.963Z,5.35
2023-02-04T18:13:04.383Z,4.13
2023-02-04T18:15:32.610Z,4.55
2023-02-04T18:18:21.746Z,5.07
2023-02-04T18:20:56.309Z,5.38
2023-02-04T18:23:23.035Z,6.30
2023-02-04T18:25:49.674Z,6.07
2023-02-04T18:28:19.134Z,6.72
2023-02-04T18:30:47.133Z,5.63
2023-02-04T18:33:18.903Z,6.15
2023-02-04T18:35:50.292Z,6.75
2023-02-04T18:38:23.164Z,7.30
2023-02-04T18:41:20.936Z,6.22
2023-02-04T18:43:51.147Z,5.78
2023-02-04T18:46:25.309Z,5.97
2023-02-04T18:49:16.475Z,6.88
2023-02-04T18:51:45.984Z,6.57
2023-02-04T18:54:35.687Z,6.55
2023-02-04T18:57:16.066Z,8.10
2023-02-04T18:59:42.924Z,7.90
2023-02-04T19:02:36.425Z,6.88
2023-02-04T19:05:19.123Z,5.77
2023-02-04T19:07:45.658Z,5.47
2023-02-04T19:10:28.901Z,6.28
2023-02-04T19:13:19.354Z,6.15
2023-02-04T19:15:55.861Z,6.35
2023-02-04T19:18:44.036Z,5.87
2023-02-04T19:21:23.340Z,6.43
2023-02-04T19:23:52.147Z,5.75
2023-02-04T19:26:29.096Z,4.82
2023-02-04T19:28:56.250Z,4.75
2023-02-04T19:31:24.830Z,5.50
2023-02-04T19:33:53.404Z,5.70
2023-02-04T19:36:38.437Z,4.10
2023-02-04T19:39:20.336Z,3.45
2023-02-04T19:41:49.166Z,3.33
2023-02-04T19:44:29.792Z,4.10
2023-02-04T19:46:57.667Z,3.72
2023-02-04T19:49:37.488Z,3.75
2023-02-04T19:52:19.919Z,4.07
2023-02-04T19:54:46.408Z,5.07
2023-02-04T19:57:35.452Z,5.80
2023-02-04T20:00:01.933Z,8.00
2023-02-04T20:02:35.851Z,4.30
2023-02-04T20:05:18.189Z,4.85
2023-02-04T20:07:44.723Z,6.70
2023-02-04T20:10:24.337Z,6.10
2023-02-04T20:13:12.368Z,4.70
2023-02-04T20:15:38.917Z,5.72
2023-02-04T20:18:18.497Z,7.20
2023-02-04T20:20:45.722Z,6.03
2023-02-04T20:23:29.578Z,5.43
2023-02-04T20:25:56.943Z,6.07
2023-02-04T20:28:40.110Z,5.43
2023-02-04T20:31:39.794Z,5.45
2023-02-04T20:34:22.504Z,5.18
2023-02-04T20:36:55.594Z,5.57
2023-02-04T20:39:34.349Z,6.07
2023-02-04T20:42:33.393Z,5.35
2023-02-04T20:45:39.439Z,5.13
2023-02-04T20:48:15.905Z,5.32
2023-02-04T20:50:52.232Z,4.77
2023-02-04T20:53:38.094Z,4.85
2023-02-04T20:56:24.338Z,4.53
2023-02-04T20:58:55.334Z,4.47
2023-02-04T21:01:33.817Z,5.03
2023-02-04T21:04:22.238Z,5.73
2023-02-04T21:06:51.586Z,4.75
2023-02-04T21:09:29.189Z,5.20
2023-02-04T21:11:56.811Z,4.43
2023-02-04T21:14:24.768Z,5.80
2023-02-04T21:16:52.697Z,5.20
2023-02-04T21:19:21.014Z,4.78
2023-02-04T21:21:47.792Z,5.95
2023-02-04T21:24:14.568Z,6.15
2023-02-04T21:26:47.255Z,5.32
2023-02-04T21:29:14.290Z,5.70
2023-02-04T21:31:41.257Z,6.78
2023-02-04T21:34:11.053Z,7.10
2023-02-04T21:36:37.583Z,6.40
2023-02-04T21:39:04.532Z,7.32
2023-02-04T21:41:31.071Z,6.37
2023-02-04T21:43:57.583Z,6.80
2023-02-04T21:46:24.207Z,7.20
2023-02-04T21:48:50.911Z,6.95
2023-02-04T21:51:20.673Z,6.82
2023-02-04T21:54:08.593Z,6.83
2023-02-04T21:56:35.203Z,6.95
2023-02-04T21:59:01.875Z,7.20
2023-02-04T22:01:28.479Z,7.55
2023-02-04T22:03:56.963Z,7.75
2023-02-04T22:06:24.012Z,6.53
2023-02-04T22:08:51.423Z,6.20
2023-02-04T22:11:17.972Z,6.78
2023-02-04T22:14:03.211Z,7.15
2023-02-04T22:16:29.848Z,7.25
2023-02-04T22:18:56.389Z,5.80
2023-02-04T22:21:23.335Z,7.18
2023-02-04T22:23:49.884Z,6.93
2023-02-04T22:26:16.538Z,6.68
2023-02-04T22:28:42.997Z,6.60
2023-02-04T22:31:09.556Z,9.60
2023-02-04T22:33:36.198Z,7.50
2023-02-04T22:36:02.858Z,7.22
2023-02-04T22:38:29.422Z,7.65
2023-02-04T22:40:55.931Z,7.57
2023-02-04T22:43:23.626Z,8.83
2023-02-04T22:45:50.163Z,7.03
2023-02-04T22:48:16.663Z,7.10
2023-02-04T22:50:43.168Z,6.32
2023-02-04T22:53:09.619Z,7.95
2023-02-04T22:55:36.304Z,7.27
2023-02-04T22:58:02.987Z,8.02
2023-02-04T23:00:29.740Z,7.53
2023-02-04T23:02:56.275Z,6.45
2023-02-04T23:05:22.934Z,7.03
2023-02-04T23:07:50.417Z,7.43
2023-02-04T23:10:18.800Z,6.25
2023-02-04T23:12:45.512Z,6.97
2023-02-04T23:15:12.447Z,6.80
2023-02-04T23:17:38.875Z,8.52
2023-02-04T23:20:05.759Z,7.23
2023-02-04T23:22:32.538Z,7.25
2023-02-04T23:24:59.105Z,6.35
2023-02-04T23:27:25.606Z,6.35
2023-02-04T23:29:52.061Z,5.88
2023-02-04T23:32:18.571Z,6.83
2023-02-04T23:34:46.289Z,6.57
2023-02-04T23:37:12.922Z,6.35
2023-02-04T23:39:39.869Z,6.90
2023-02-04T23:42:07.402Z,7.43
2023-02-04T23:44:33.991Z,8.13
2023-02-04T23:47:00.697Z,6.30
2023-02-04T23:49:27.727Z,7.40
2023-02-04T23:51:54.316Z,7.78
2023-02-04T23:54:23.734Z,7.20
2023-02-04T23:56:50.202Z,7.20
2023-02-04T23:59:17.237Z,7.35
